Mount Gambier Airport
YMTG : now visible

Airfield :











YOU CAN JOIN US ON...

 
LOGIN :

Register | Disclaimer

   EN    FR    IT 

 









Legend :    VFR   Marginal VFR   IFR   Intensive IFR   Very Intensive IFR
Visi :
Ceiling :
>= 8 km
>= 3000ft
5 to 8 km
1000 to 3000 ft
1500m to 5 km
500 to 1000 ft
800 to 1500m
200 to 500 ft
< 800m
< 200 ft
Symbols :   Thunderstorms  Fog  Heavy snow  Heavy precipitations  Wind > 20 kt






- Airport Elevation : 212 ft
- IATA code : MGB


YMTG - Mount Gambier

CURRENT METAR :
  • 252230Z AUTO 29008KT 9999 // BKN008 OVC014 OVC021 18/16 Q1015

EXPIRED METARs :
  • 252203Z AUTO 30007KT 9999 // SCT008 BKN014 BKN030 17/16 Q1015
  • 252100Z AUTO 31006KT 9999 // SCT009 SCT017 BKN024 16/16 Q1014
  • 252059Z AUTO 31006KT 9999 // SCT009 SCT017 BKN024 16/16 Q1014
  • 252000Z AUTO 33006KT 9999 // SCT021 OVC035 16/15 Q1013

TAF N/A



MET'MAP, your aeronautical weather chart ! - Copyright ORBIFLY December 2007 - Disclaimer

ORBIFLY MET'MAP TEAM :

Programming & Development : Alexandra Zaïnal
Concept & original design : Baudouin d'Aumeries
Assistance for programming : Marc-Olivier Méhu
Technical & hardware support : Manuel Goepfert

Contact : metmap@orbifly.com




SOURCES & CREDITS :

   NOAA       Earth
Advisory